sensor_id;sensor_type;location;lat;lon;timestamp;temperature;humidity
3023;DHT22;1521;53.584;9.938;2023-12-14T00:01:32;4.00;99.90
3023;DHT22;1521;53.584;9.938;2023-12-14T00:03:57;4.00;1.00
3023;DHT22;1521;53.584;9.938;2023-12-14T00:06:23;4.00;1.00
3023;DHT22;1521;53.584;9.938;2023-12-14T00:08:48;4.00;1.00
3023;DHT22;1521;53.584;9.938;2023-12-14T00:11:15;4.00;1.00
3023;DHT22;1521;53.584;9.938;2023-12-14T00:13:41;4.00;1.00
3023;DHT22;1521;53.584;9.938;2023-12-14T00:16:07;4.00;1.00
3023;DHT22;1521;53.584;9.938;2023-12-14T00:18:32;4.10;14.90
3023;DHT22;1521;53.584;9.938;2023-12-14T00:20:58;4.10;80.80
3023;DHT22;1521;53.584;9.938;2023-12-14T00:23:24;4.00;21.60
3023;DHT22;1521;53.584;9.938;2023-12-14T00:25:49;4.10;34.50
3023;DHT22;1521;53.584;9.938;2023-12-14T00:28:15;4.10;99.90
3023;DHT22;1521;53.584;9.938;2023-12-14T00:30:41;4.10;99.90
3023;DHT22;1521;53.584;9.938;2023-12-14T00:33:06;4.10;1.00
3023;DHT22;1521;53.584;9.938;2023-12-14T00:35:32;4.10;92.50
3023;DHT22;1521;53.584;9.938;2023-12-14T00:37:57;4.10;99.90
3023;DHT22;1521;53.584;9.938;2023-12-14T00:40:23;4.10;72.70
3023;DHT22;1521;53.584;9.938;2023-12-14T00:42:48;4.20;1.00
3023;DHT22;1521;53.584;9.938;2023-12-14T00:45:14;4.20;1.00
3023;DHT22;1521;53.584;9.938;2023-12-14T00:47:40;4.20;1.00
3023;DHT22;1521;53.584;9.938;2023-12-14T00:50:05;4.20;99.90
3023;DHT22;1521;53.584;9.938;2023-12-14T00:52:31;4.30;99.90
3023;DHT22;1521;53.584;9.938;2023-12-14T00:54:57;4.30;99.90
3023;DHT22;1521;53.584;9.938;2023-12-14T00:57:22;4.30;99.90
3023;DHT22;1521;53.584;9.938;2023-12-14T00:59:48;4.30;1.00
3023;DHT22;1521;53.584;9.938;2023-12-14T01:02:13;4.40;1.00
3023;DHT22;1521;53.584;9.938;2023-12-14T01:04:39;4.40;1.00
3023;DHT22;1521;53.584;9.938;2023-12-14T01:07:05;4.50;99.90
3023;DHT22;1521;53.584;9.938;2023-12-14T01:09:30;4.50;93.70
3023;DHT22;1521;53.584;9.938;2023-12-14T01:11:56;4.50;99.90
3023;DHT22;1521;53.584;9.938;2023-12-14T01:14:22;4.50;99.90
3023;DHT22;1521;53.584;9.938;2023-12-14T01:16:47;4.60;99.90
3023;DHT22;1521;53.584;9.938;2023-12-14T01:19:13;4.50;99.90
3023;DHT22;1521;53.584;9.938;2023-12-14T01:21:39;4.50;99.90
3023;DHT22;1521;53.584;9.938;2023-12-14T01:24:05;4.50;99.90
3023;DHT22;1521;53.584;9.938;2023-12-14T01:26:31;4.60;99.90
3023;DHT22;1521;53.584;9.938;2023-12-14T01:28:56;4.50;99.90
3023;DHT22;1521;53.584;9.938;2023-12-14T01:31:22;4.60;1.00
3023;DHT22;1521;53.584;9.938;2023-12-14T01:33:51;4.60;1.00
3023;DHT22;1521;53.584;9.938;2023-12-14T01:36:24;4.60;1.00
3023;DHT22;1521;53.584;9.938;2023-12-14T01:38:50;4.50;99.90
3023;DHT22;1521;53.584;9.938;2023-12-14T01:41:15;4.60;99.90
3023;DHT22;1521;53.584;9.938;2023-12-14T01:43:41;4.50;1.00
3023;DHT22;1521;53.584;9.938;2023-12-14T01:46:07;4.60;1.00
3023;DHT22;1521;53.584;9.938;2023-12-14T01:48:32;4.50;1.00
3023;DHT22;1521;53.584;9.938;2023-12-14T01:50:58;4.50;1.00
3023;DHT22;1521;53.584;9.938;2023-12-14T01:53:23;4.60;1.00
3023;DHT22;1521;53.584;9.938;2023-12-14T01:55:49;4.60;1.00
3023;DHT22;1521;53.584;9.938;2023-12-14T01:58:14;4.60;99.90
3023;DHT22;1521;53.584;9.938;2023-12-14T02:03:12;4.50;99.90
3023;DHT22;1521;53.584;9.938;2023-12-14T02:05:37;4.60;99.90
3023;DHT22;1521;53.584;9.938;2023-12-14T02:08:03;4.60;99.90
3023;DHT22;1521;53.584;9.938;2023-12-14T02:10:29;4.60;99.90
3023;DHT22;1521;53.584;9.938;2023-12-14T02:12:54;4.50;99.90
3023;DHT22;1521;53.584;9.938;2023-12-14T02:15:20;4.60;99.90
3023;DHT22;1521;53.584;9.938;2023-12-14T02:17:45;4.60;99.90
3023;DHT22;1521;53.584;9.938;2023-12-14T02:20:11;4.60;99.90
3023;DHT22;1521;53.584;9.938;2023-12-14T02:22:53;4.60;99.90
3023;DHT22;1521;53.584;9.938;2023-12-14T02:25:19;4.60;99.90
3023;DHT22;1521;53.584;9.938;2023-12-14T02:27:45;4.60;99.90
3023;DHT22;1521;53.584;9.938;2023-12-14T02:30:11;4.60;1.00
3023;DHT22;1521;53.584;9.938;2023-12-14T02:32:38;4.50;99.90
3023;DHT22;1521;53.584;9.938;2023-12-14T02:35:05;4.60;1.00
3023;DHT22;1521;53.584;9.938;2023-12-14T02:37:31;4.50;1.00
3023;DHT22;1521;53.584;9.938;2023-12-14T02:39:57;4.50;1.00
3023;DHT22;1521;53.584;9.938;2023-12-14T02:42:23;4.60;1.00
3023;DHT22;1521;53.584;9.938;2023-12-14T02:44:49;4.60;1.00
3023;DHT22;1521;53.584;9.938;2023-12-14T02:47:15;4.60;99.90
3023;DHT22;1521;53.584;9.938;2023-12-14T02:49:41;4.60;99.90
3023;DHT22;1521;53.584;9.938;2023-12-14T02:52:06;4.60;99.90
3023;DHT22;1521;53.584;9.938;2023-12-14T02:54:32;4.70;99.90
3023;DHT22;1521;53.584;9.938;2023-12-14T02:56:58;4.60;99.90
3023;DHT22;1521;53.584;9.938;2023-12-14T02:59:23;4.60;99.90
3023;DHT22;1521;53.584;9.938;2023-12-14T03:01:49;4.60;99.90
3023;DHT22;1521;53.584;9.938;2023-12-14T03:04:14;4.60;1.00
3023;DHT22;1521;53.584;9.938;2023-12-14T03:06:40;4.60;1.00
3023;DHT22;1521;53.584;9.938;2023-12-14T03:09:05;4.50;1.00
3023;DHT22;1521;53.584;9.938;2023-12-14T03:11:31;4.60;1.00
3023;DHT22;1521;53.584;9.938;2023-12-14T03:13:56;4.60;1.00
3023;DHT22;1521;53.584;9.938;2023-12-14T03:16:22;4.60;37.90
3023;DHT22;1521;53.584;9.938;2023-12-14T03:18:48;4.60;1.00
3023;DHT22;1521;53.584;9.938;2023-12-14T03:21:17;4.60;1.00
3023;DHT22;1521;53.584;9.938;2023-12-14T03:23:43;4.60;1.00
3023;DHT22;1521;53.584;9.938;2023-12-14T03:26:09;4.50;1.00
3023;DHT22;1521;53.584;9.938;2023-12-14T03:28:34;4.50;1.00
3023;DHT22;1521;53.584;9.938;2023-12-14T03:31:00;4.50;1.00
3023;DHT22;1521;53.584;9.938;2023-12-14T03:33:26;4.60;1.00
3023;DHT22;1521;53.584;9.938;2023-12-14T03:35:51;4.60;99.90
3023;DHT22;1521;53.584;9.938;2023-12-14T03:38:17;4.60;99.90
3023;DHT22;1521;53.584;9.938;2023-12-14T03:40:42;4.60;99.90
3023;DHT22;1521;53.584;9.938;2023-12-14T03:43:08;4.60;64.60
3023;DHT22;1521;53.584;9.938;2023-12-14T03:45:33;4.60;99.90
3023;DHT22;1521;53.584;9.938;2023-12-14T03:47:59;4.60;5.00
3023;DHT22;1521;53.584;9.938;2023-12-14T03:50:25;4.50;1.00
3023;DHT22;1521;53.584;9.938;2023-12-14T03:52:50;4.50;1.00
3023;DHT22;1521;53.584;9.938;2023-12-14T03:55:16;4.50;99.90
3023;DHT22;1521;53.584;9.938;2023-12-14T03:57:42;4.60;99.90
3023;DHT22;1521;53.584;9.938;2023-12-14T04:00:14;4.60;1.00
3023;DHT22;1521;53.584;9.938;2023-12-14T04:02:40;4.60;1.00
3023;DHT22;1521;53.584;9.938;2023-12-14T04:05:09;4.60;3.60
3023;DHT22;1521;53.584;9.938;2023-12-14T04:07:38;4.60;84.10
3023;DHT22;1521;53.584;9.938;2023-12-14T04:10:14;4.60;99.90
3023;DHT22;1521;53.584;9.938;2023-12-14T04:12:40;4.50;99.90
3023;DHT22;1521;53.584;9.938;2023-12-14T04:15:07;4.60;99.90
3023;DHT22;1521;53.584;9.938;2023-12-14T04:17:33;4.50;99.90
3023;DHT22;1521;53.584;9.938;2023-12-14T04:19:59;4.50;1.00
3023;DHT22;1521;53.584;9.938;2023-12-14T04:22:26;4.60;1.00
3023;DHT22;1521;53.584;9.938;2023-12-14T04:24:51;4.50;99.90
3023;DHT22;1521;53.584;9.938;2023-12-14T04:27:17;4.50;99.90
3023;DHT22;1521;53.584;9.938;2023-12-14T04:29:43;4.50;99.90
3023;DHT22;1521;53.584;9.938;2023-12-14T04:32:08;4.50;1.00
3023;DHT22;1521;53.584;9.938;2023-12-14T04:34:34;4.50;1.00
3023;DHT22;1521;53.584;9.938;2023-12-14T04:37:00;4.50;1.00
3023;DHT22;1521;53.584;9.938;2023-12-14T04:39:25;4.50;30.30
3023;DHT22;1521;53.584;9.938;2023-12-14T04:41:52;4.40;99.90
3023;DHT22;1521;53.584;9.938;2023-12-14T04:44:18;4.40;99.90
3023;DHT22;1521;53.584;9.938;2023-12-14T04:46:44;4.50;99.90
3023;DHT22;1521;53.584;9.938;2023-12-14T04:49:09;4.50;99.90
3023;DHT22;1521;53.584;9.938;2023-12-14T04:51:35;4.50;99.90
3023;DHT22;1521;53.584;9.938;2023-12-14T04:54:00;4.50;99.90
3023;DHT22;1521;53.584;9.938;2023-12-14T04:56:26;4.60;99.90
3023;DHT22;1521;53.584;9.938;2023-12-14T04:58:52;4.60;99.90
3023;DHT22;1521;53.584;9.938;2023-12-14T05:01:17;4.50;99.90
3023;DHT22;1521;53.584;9.938;2023-12-14T05:03:43;4.50;1.00
3023;DHT22;1521;53.584;9.938;2023-12-14T05:06:09;4.50;1.00
3023;DHT22;1521;53.584;9.938;2023-12-14T05:08:35;4.60;1.00
3023;DHT22;1521;53.584;9.938;2023-12-14T05:11:01;4.60;1.00
3023;DHT22;1521;53.584;9.938;2023-12-14T05:13:26;4.50;1.00
3023;DHT22;1521;53.584;9.938;2023-12-14T05:15:52;4.60;1.00
3023;DHT22;1521;53.584;9.938;2023-12-14T05:18:18;4.50;1.00
3023;DHT22;1521;53.584;9.938;2023-12-14T05:20:44;4.50;1.00
3023;DHT22;1521;53.584;9.938;2023-12-14T05:23:11;4.50;1.00
3023;DHT22;1521;53.584;9.938;2023-12-14T05:25:37;4.50;1.00
3023;DHT22;1521;53.584;9.938;2023-12-14T05:28:03;4.50;99.90
3023;DHT22;1521;53.584;9.938;2023-12-14T05:30:29;4.50;99.90
3023;DHT22;1521;53.584;9.938;2023-12-14T05:32:55;4.50;99.90
3023;DHT22;1521;53.584;9.938;2023-12-14T05:35:20;4.60;99.90
3023;DHT22;1521;53.584;9.938;2023-12-14T05:37:46;4.50;99.90
3023;DHT22;1521;53.584;9.938;2023-12-14T05:40:12;4.50;99.90
3023;DHT22;1521;53.584;9.938;2023-12-14T05:42:38;4.50;99.90
3023;DHT22;1521;53.584;9.938;2023-12-14T05:45:07;4.40;1.00
3023;DHT22;1521;53.584;9.938;2023-12-14T05:47:33;4.50;1.00
3023;DHT22;1521;53.584;9.938;2023-12-14T05:50:00;4.40;1.00
3023;DHT22;1521;53.584;9.938;2023-12-14T05:52:26;4.40;1.00
3023;DHT22;1521;53.584;9.938;2023-12-14T05:54:51;4.50;1.00
3023;DHT22;1521;53.584;9.938;2023-12-14T05:57:17;4.50;1.00
3023;DHT22;1521;53.584;9.938;2023-12-14T05:59:42;4.40;99.90
3023;DHT22;1521;53.584;9.938;2023-12-14T06:02:08;4.40;1.00
3023;DHT22;1521;53.584;9.938;2023-12-14T06:04:34;4.30;1.00
3023;DHT22;1521;53.584;9.938;2023-12-14T06:07:00;4.40;1.00
3023;DHT22;1521;53.584;9.938;2023-12-14T06:09:25;4.40;1.00
3023;DHT22;1521;53.584;9.938;2023-12-14T06:11:59;4.30;1.00
3023;DHT22;1521;53.584;9.938;2023-12-14T06:14:25;4.30;1.00
3023;DHT22;1521;53.584;9.938;2023-12-14T06:16:51;4.30;6.50
3023;DHT22;1521;53.584;9.938;2023-12-14T06:19:17;4.30;99.90
3023;DHT22;1521;53.584;9.938;2023-12-14T06:21:42;4.30;24.00
3023;DHT22;1521;53.584;9.938;2023-12-14T06:24:08;4.20;59.10
3023;DHT22;1521;53.584;9.938;2023-12-14T06:26:33;4.30;99.90
3023;DHT22;1521;53.584;9.938;2023-12-14T06:28:59;4.30;99.90
3023;DHT22;1521;53.584;9.938;2023-12-14T06:31:24;4.20;99.90
3023;DHT22;1521;53.584;9.938;2023-12-14T06:33:50;4.20;99.90
3023;DHT22;1521;53.584;9.938;2023-12-14T06:36:16;4.20;99.90
3023;DHT22;1521;53.584;9.938;2023-12-14T06:38:44;4.20;99.90
3023;DHT22;1521;53.584;9.938;2023-12-14T06:41:23;4.10;99.90
3023;DHT22;1521;53.584;9.938;2023-12-14T06:43:49;4.10;99.90
3023;DHT22;1521;53.584;9.938;2023-12-14T06:46:15;4.20;99.90
3023;DHT22;1521;53.584;9.938;2023-12-14T06:48:41;4.20;99.90
3023;DHT22;1521;53.584;9.938;2023-12-14T06:51:06;4.10;1.00
3023;DHT22;1521;53.584;9.938;2023-12-14T06:53:32;4.20;1.00
3023;DHT22;1521;53.584;9.938;2023-12-14T06:55:58;4.20;1.00
3023;DHT22;1521;53.584;9.938;2023-12-14T06:58:24;4.20;1.00
3023;DHT22;1521;53.584;9.938;2023-12-14T07:00:49;4.20;1.00
3023;DHT22;1521;53.584;9.938;2023-12-14T07:03:15;4.20;1.00
3023;DHT22;1521;53.584;9.938;2023-12-14T07:05:41;4.20;1.00
3023;DHT22;1521;53.584;9.938;2023-12-14T07:08:06;4.20;1.00
3023;DHT22;1521;53.584;9.938;2023-12-14T07:10:32;4.20;1.00
3023;DHT22;1521;53.584;9.938;2023-12-14T07:12:57;4.30;1.00
3023;DHT22;1521;53.584;9.938;2023-12-14T07:15:24;4.20;1.00
3023;DHT22;1521;53.584;9.938;2023-12-14T07:17:50;4.20;1.00
3023;DHT22;1521;53.584;9.938;2023-12-14T07:20:15;4.20;1.00
3023;DHT22;1521;53.584;9.938;2023-12-14T07:22:41;4.20;1.00
3023;DHT22;1521;53.584;9.938;2023-12-14T07:25:07;4.20;1.00
3023;DHT22;1521;53.584;9.938;2023-12-14T07:27:33;4.20;1.00
3023;DHT22;1521;53.584;9.938;2023-12-14T07:29:59;4.20;1.00
3023;DHT22;1521;53.584;9.938;2023-12-14T07:32:24;4.20;1.00
3023;DHT22;1521;53.584;9.938;2023-12-14T07:34:50;4.20;1.00
3023;DHT22;1521;53.584;9.938;2023-12-14T07:37:16;4.20;1.00
3023;DHT22;1521;53.584;9.938;2023-12-14T07:39:41;4.20;1.00
3023;DHT22;1521;53.584;9.938;2023-12-14T07:42:07;4.20;1.00
3023;DHT22;1521;53.584;9.938;2023-12-14T07:44:32;4.20;1.00
3023;DHT22;1521;53.584;9.938;2023-12-14T07:47:00;4.20;1.00
3023;DHT22;1521;53.584;9.938;2023-12-14T07:49:26;4.20;1.00
3023;DHT22;1521;53.584;9.938;2023-12-14T07:51:51;4.20;1.00
3023;DHT22;1521;53.584;9.938;2023-12-14T07:54:17;4.10;1.00
3023;DHT22;1521;53.584;9.938;2023-12-14T07:56:44;4.10;1.00
3023;DHT22;1521;53.584;9.938;2023-12-14T07:59:10;4.10;1.00
3023;DHT22;1521;53.584;9.938;2023-12-14T08:01:35;4.20;1.00
3023;DHT22;1521;53.584;9.938;2023-12-14T08:04:01;4.30;1.00
3023;DHT22;1521;53.584;9.938;2023-12-14T08:06:27;4.30;1.00
3023;DHT22;1521;53.584;9.938;2023-12-14T08:08:53;4.30;1.00
3023;DHT22;1521;53.584;9.938;2023-12-14T08:11:18;4.30;1.00
3023;DHT22;1521;53.584;9.938;2023-12-14T08:13:44;4.20;1.00
3023;DHT22;1521;53.584;9.938;2023-12-14T08:16:10;4.20;1.00
3023;DHT22;1521;53.584;9.938;2023-12-14T08:18:37;4.30;1.00
3023;DHT22;1521;53.584;9.938;2023-12-14T08:21:03;4.30;1.00
3023;DHT22;1521;53.584;9.938;2023-12-14T08:23:29;4.30;1.00
3023;DHT22;1521;53.584;9.938;2023-12-14T08:25:56;4.30;1.00
3023;DHT22;1521;53.584;9.938;2023-12-14T08:28:24;4.30;1.00
3023;DHT22;1521;53.584;9.938;2023-12-14T08:30:51;4.40;1.00
3023;DHT22;1521;53.584;9.938;2023-12-14T08:33:17;4.40;1.00
3023;DHT22;1521;53.584;9.938;2023-12-14T08:35:42;4.40;1.00
3023;DHT22;1521;53.584;9.938;2023-12-14T08:38:09;4.40;1.00
3023;DHT22;1521;53.584;9.938;2023-12-14T08:40:34;4.40;1.00
3023;DHT22;1521;53.584;9.938;2023-12-14T08:43:00;4.40;1.00
3023;DHT22;1521;53.584;9.938;2023-12-14T08:45:25;4.40;1.00
3023;DHT22;1521;53.584;9.938;2023-12-14T08:47:51;4.40;1.00
3023;DHT22;1521;53.584;9.938;2023-12-14T08:50:16;4.40;1.00
3023;DHT22;1521;53.584;9.938;2023-12-14T08:52:42;4.40;1.00
3023;DHT22;1521;53.584;9.938;2023-12-14T08:55:08;4.40;1.00
3023;DHT22;1521;53.584;9.938;2023-12-14T08:57:34;4.40;1.00
3023;DHT22;1521;53.584;9.938;2023-12-14T09:00:00;4.40;99.90
3023;DHT22;1521;53.584;9.938;2023-12-14T09:02:26;4.50;99.90
3023;DHT22;1521;53.584;9.938;2023-12-14T09:04:52;4.50;99.90
3023;DHT22;1521;53.584;9.938;2023-12-14T09:07:17;4.40;99.90
3023;DHT22;1521;53.584;9.938;2023-12-14T09:09:43;4.50;99.90
3023;DHT22;1521;53.584;9.938;2023-12-14T09:12:09;4.60;99.90
3023;DHT22;1521;53.584;9.938;2023-12-14T09:14:35;4.60;99.90
3023;DHT22;1521;53.584;9.938;2023-12-14T09:17:01;4.60;99.90
3023;DHT22;1521;53.584;9.938;2023-12-14T09:19:29;4.60;99.90
3023;DHT22;1521;53.584;9.938;2023-12-14T09:21:54;4.70;99.90
3023;DHT22;1521;53.584;9.938;2023-12-14T09:24:20;4.60;4.70
3023;DHT22;1521;53.584;9.938;2023-12-14T09:26:45;4.60;90.80
3023;DHT22;1521;53.584;9.938;2023-12-14T09:29:11;4.60;1.00
3023;DHT22;1521;53.584;9.938;2023-12-14T09:31:37;4.60;1.00
3023;DHT22;1521;53.584;9.938;2023-12-14T09:34:05;4.70;19.30
3023;DHT22;1521;53.584;9.938;2023-12-14T09:36:31;4.70;1.00
3023;DHT22;1521;53.584;9.938;2023-12-14T09:38:57;4.70;1.00
3023;DHT22;1521;53.584;9.938;2023-12-14T09:41:22;4.70;1.00
3023;DHT22;1521;53.584;9.938;2023-12-14T09:43:48;4.80;1.00
3023;DHT22;1521;53.584;9.938;2023-12-14T09:46:16;4.80;99.90
3023;DHT22;1521;53.584;9.938;2023-12-14T09:48:42;4.70;99.90
3023;DHT22;1521;53.584;9.938;2023-12-14T09:51:08;4.80;99.90
3023;DHT22;1521;53.584;9.938;2023-12-14T09:53:35;4.80;1.00
3023;DHT22;1521;53.584;9.938;2023-12-14T09:56:00;4.80;1.00
3023;DHT22;1521;53.584;9.938;2023-12-14T09:58:26;4.90;1.00
3023;DHT22;1521;53.584;9.938;2023-12-14T10:00:52;4.80;99.90
3023;DHT22;1521;53.584;9.938;2023-12-14T10:03:19;4.80;1.00
3023;DHT22;1521;53.584;9.938;2023-12-14T10:05:46;4.90;99.90
3023;DHT22;1521;53.584;9.938;2023-12-14T10:08:12;4.80;1.00
3023;DHT22;1521;53.584;9.938;2023-12-14T10:10:38;4.80;99.90
3023;DHT22;1521;53.584;9.938;2023-12-14T10:13:04;4.90;99.90
3023;DHT22;1521;53.584;9.938;2023-12-14T10:15:29;4.90;99.90
3023;DHT22;1521;53.584;9.938;2023-12-14T10:18:05;4.90;1.00
3023;DHT22;1521;53.584;9.938;2023-12-14T10:20:32;5.00;1.00
3023;DHT22;1521;53.584;9.938;2023-12-14T10:22:57;5.00;99.90
3023;DHT22;1521;53.584;9.938;2023-12-14T10:25:23;5.00;58.80
3023;DHT22;1521;53.584;9.938;2023-12-14T10:27:51;5.00;1.00
3023;DHT22;1521;53.584;9.938;2023-12-14T10:30:18;5.00;1.00
3023;DHT22;1521;53.584;9.938;2023-12-14T10:32:49;5.00;1.00
3023;DHT22;1521;53.584;9.938;2023-12-14T10:35:15;5.00;1.00
3023;DHT22;1521;53.584;9.938;2023-12-14T10:37:42;5.10;1.00
3023;DHT22;1521;53.584;9.938;2023-12-14T10:40:09;5.10;99.90
3023;DHT22;1521;53.584;9.938;2023-12-14T10:42:39;5.10;99.90
3023;DHT22;1521;53.584;9.938;2023-12-14T10:45:06;5.10;99.90
3023;DHT22;1521;53.584;9.938;2023-12-14T10:47:32;5.10;1.00
3023;DHT22;1521;53.584;9.938;2023-12-14T10:50:00;5.20;99.90
3023;DHT22;1521;53.584;9.938;2023-12-14T10:52:27;5.20;1.00
3023;DHT22;1521;53.584;9.938;2023-12-14T10:54:58;5.20;1.00
3023;DHT22;1521;53.584;9.938;2023-12-14T10:57:25;5.20;99.90
3023;DHT22;1521;53.584;9.938;2023-12-14T10:59:58;5.20;1.00
3023;DHT22;1521;53.584;9.938;2023-12-14T11:02:24;5.20;1.00
3023;DHT22;1521;53.584;9.938;2023-12-14T11:04:59;5.20;1.00
3023;DHT22;1521;53.584;9.938;2023-12-14T11:07:46;5.20;1.00
3023;DHT22;1521;53.584;9.938;2023-12-14T11:10:12;5.30;1.00
3023;DHT22;1521;53.584;9.938;2023-12-14T11:12:37;5.30;99.90
3023;DHT22;1521;53.584;9.938;2023-12-14T11:15:05;5.30;99.90
3023;DHT22;1521;53.584;9.938;2023-12-14T11:17:30;5.20;38.00
3023;DHT22;1521;53.584;9.938;2023-12-14T11:20:26;5.20;99.90
3023;DHT22;1521;53.584;9.938;2023-12-14T11:22:55;5.30;1.00
3023;DHT22;1521;53.584;9.938;2023-12-14T11:25:23;5.40;99.90
3023;DHT22;1521;53.584;9.938;2023-12-14T11:27:49;5.30;99.90
3023;DHT22;1521;53.584;9.938;2023-12-14T11:30:16;5.30;1.00
3023;DHT22;1521;53.584;9.938;2023-12-14T11:32:42;5.40;1.00
3023;DHT22;1521;53.584;9.938;2023-12-14T11:35:07;5.40;3.70
3023;DHT22;1521;53.584;9.938;2023-12-14T11:37:36;5.40;1.00
3023;DHT22;1521;53.584;9.938;2023-12-14T11:40:02;5.40;99.90
3023;DHT22;1521;53.584;9.938;2023-12-14T11:42:30;5.40;1.00
3023;DHT22;1521;53.584;9.938;2023-12-14T11:44:57;5.40;1.00
3023;DHT22;1521;53.584;9.938;2023-12-14T11:47:22;5.40;1.00
3023;DHT22;1521;53.584;9.938;2023-12-14T11:49:48;5.30;99.90
3023;DHT22;1521;53.584;9.938;2023-12-14T11:52:14;5.30;1.00
3023;DHT22;1521;53.584;9.938;2023-12-14T11:54:39;5.30;1.00
3023;DHT22;1521;53.584;9.938;2023-12-14T11:57:05;5.30;1.00
3023;DHT22;1521;53.584;9.938;2023-12-14T11:59:34;5.30;1.00
3023;DHT22;1521;53.584;9.938;2023-12-14T12:02:01;5.30;99.90
3023;DHT22;1521;53.584;9.938;2023-12-14T12:04:27;5.30;1.00
3023;DHT22;1521;53.584;9.938;2023-12-14T12:07:03;5.30;1.00
3023;DHT22;1521;53.584;9.938;2023-12-14T12:09:42;5.30;1.00
3023;DHT22;1521;53.584;9.938;2023-12-14T12:12:11;5.30;1.00
3023;DHT22;1521;53.584;9.938;2023-12-14T12:14:38;5.30;99.90
3023;DHT22;1521;53.584;9.938;2023-12-14T12:17:05;5.30;1.00
3023;DHT22;1521;53.584;9.938;2023-12-14T12:19:35;5.30;1.00
3023;DHT22;1521;53.584;9.938;2023-12-14T12:22:01;5.30;1.00
3023;DHT22;1521;53.584;9.938;2023-12-14T12:24:27;5.20;52.00
3023;DHT22;1521;53.584;9.938;2023-12-14T12:26:53;5.20;99.90
3023;DHT22;1521;53.584;9.938;2023-12-14T12:29:19;5.20;1.00
3023;DHT22;1521;53.584;9.938;2023-12-14T12:31:44;5.20;1.00
3023;DHT22;1521;53.584;9.938;2023-12-14T12:34:11;5.20;99.90
3023;DHT22;1521;53.584;9.938;2023-12-14T12:36:37;5.20;1.00
3023;DHT22;1521;53.584;9.938;2023-12-14T12:39:03;5.20;1.00
3023;DHT22;1521;53.584;9.938;2023-12-14T12:41:31;5.20;99.90
3023;DHT22;1521;53.584;9.938;2023-12-14T12:43:57;5.20;99.90
3023;DHT22;1521;53.584;9.938;2023-12-14T12:46:24;5.20;1.00
3023;DHT22;1521;53.584;9.938;2023-12-14T12:48:50;5.20;1.00
3023;DHT22;1521;53.584;9.938;2023-12-14T12:51:16;5.30;1.00
3023;DHT22;1521;53.584;9.938;2023-12-14T12:53:42;5.30;99.90
3023;DHT22;1521;53.584;9.938;2023-12-14T12:56:08;5.30;43.60
3023;DHT22;1521;53.584;9.938;2023-12-14T12:58:33;5.30;1.00
3023;DHT22;1521;53.584;9.938;2023-12-14T13:00:59;5.30;1.00
3023;DHT22;1521;53.584;9.938;2023-12-14T13:03:24;5.20;1.00
3023;DHT22;1521;53.584;9.938;2023-12-14T13:05:50;5.20;1.00
3023;DHT22;1521;53.584;9.938;2023-12-14T13:08:15;5.20;1.00
3023;DHT22;1521;53.584;9.938;2023-12-14T13:10:41;5.10;1.00
3023;DHT22;1521;53.584;9.938;2023-12-14T13:13:06;5.10;1.00
3023;DHT22;1521;53.584;9.938;2023-12-14T13:15:33;5.10;1.00
3023;DHT22;1521;53.584;9.938;2023-12-14T13:18:00;5.10;1.00
3023;DHT22;1521;53.584;9.938;2023-12-14T13:20:26;5.10;99.90
3023;DHT22;1521;53.584;9.938;2023-12-14T13:22:51;5.10;88.60
3023;DHT22;1521;53.584;9.938;2023-12-14T13:25:18;5.10;1.00
3023;DHT22;1521;53.584;9.938;2023-12-14T13:27:43;5.10;99.90
3023;DHT22;1521;53.584;9.938;2023-12-14T13:30:09;5.10;6.70
3023;DHT22;1521;53.584;9.938;2023-12-14T13:32:36;5.10;72.10
3023;DHT22;1521;53.584;9.938;2023-12-14T13:35:01;5.00;42.40
3023;DHT22;1521;53.584;9.938;2023-12-14T13:37:27;5.00;99.90
3023;DHT22;1521;53.584;9.938;2023-12-14T13:39:53;5.00;99.90
3023;DHT22;1521;53.584;9.938;2023-12-14T13:42:18;5.00;99.90
3023;DHT22;1521;53.584;9.938;2023-12-14T13:44:44;5.00;99.90
3023;DHT22;1521;53.584;9.938;2023-12-14T13:47:10;4.90;99.90
3023;DHT22;1521;53.584;9.938;2023-12-14T13:49:36;5.00;1.00
3023;DHT22;1521;53.584;9.938;2023-12-14T13:52:03;5.00;1.00
3023;DHT22;1521;53.584;9.938;2023-12-14T13:54:29;5.00;99.90
3023;DHT22;1521;53.584;9.938;2023-12-14T13:56:54;5.00;99.90
3023;DHT22;1521;53.584;9.938;2023-12-14T13:59:20;5.00;99.90
3023;DHT22;1521;53.584;9.938;2023-12-14T14:01:46;5.00;64.50
3023;DHT22;1521;53.584;9.938;2023-12-14T14:04:16;4.90;99.90
3023;DHT22;1521;53.584;9.938;2023-12-14T14:06:42;4.90;99.90
3023;DHT22;1521;53.584;9.938;2023-12-14T14:09:08;4.90;99.90
3023;DHT22;1521;53.584;9.938;2023-12-14T14:11:34;4.90;99.90
3023;DHT22;1521;53.584;9.938;2023-12-14T14:14:01;4.80;99.90
3023;DHT22;1521;53.584;9.938;2023-12-14T14:16:26;4.90;99.90
3023;DHT22;1521;53.584;9.938;2023-12-14T14:18:52;4.80;99.90
3023;DHT22;1521;53.584;9.938;2023-12-14T14:21:18;4.70;1.00
3023;DHT22;1521;53.584;9.938;2023-12-14T14:23:43;4.70;1.00
3023;DHT22;1521;53.584;9.938;2023-12-14T14:26:10;4.70;3.70
3023;DHT22;1521;53.584;9.938;2023-12-14T14:28:36;4.70;3.10
3023;DHT22;1521;53.584;9.938;2023-12-14T14:31:01;4.70;1.00
3023;DHT22;1521;53.584;9.938;2023-12-14T14:33:27;4.70;99.90
3023;DHT22;1521;53.584;9.938;2023-12-14T14:35:52;4.60;99.90
3023;DHT22;1521;53.584;9.938;2023-12-14T14:38:18;4.70;99.90
3023;DHT22;1521;53.584;9.938;2023-12-14T14:40:44;4.60;3.30
3023;DHT22;1521;53.584;9.938;2023-12-14T14:43:10;4.60;99.90
3023;DHT22;1521;53.584;9.938;2023-12-14T14:45:36;4.50;3.30
3023;DHT22;1521;53.584;9.938;2023-12-14T14:48:06;4.50;3.00
3023;DHT22;1521;53.584;9.938;2023-12-14T14:50:34;4.40;53.80
3023;DHT22;1521;53.584;9.938;2023-12-14T14:52:59;4.40;71.80
3023;DHT22;1521;53.584;9.938;2023-12-14T14:55:25;4.40;99.90
3023;DHT22;1521;53.584;9.938;2023-12-14T14:57:51;4.30;99.90
3023;DHT22;1521;53.584;9.938;2023-12-14T15:00:17;4.30;1.00
3023;DHT22;1521;53.584;9.938;2023-12-14T15:02:43;4.30;1.00
3023;DHT22;1521;53.584;9.938;2023-12-14T15:05:09;4.30;1.00
3023;DHT22;1521;53.584;9.938;2023-12-14T15:07:35;4.20;1.00
3023;DHT22;1521;53.584;9.938;2023-12-14T15:10:00;4.30;99.90
3023;DHT22;1521;53.584;9.938;2023-12-14T15:12:26;4.20;99.90
3023;DHT22;1521;53.584;9.938;2023-12-14T15:14:51;4.20;99.90
3023;DHT22;1521;53.584;9.938;2023-12-14T15:17:17;4.20;99.90
3023;DHT22;1521;53.584;9.938;2023-12-14T15:19:44;4.20;99.90
3023;DHT22;1521;53.584;9.938;2023-12-14T15:22:12;4.20;1.00
3023;DHT22;1521;53.584;9.938;2023-12-14T15:24:38;4.20;1.00
3023;DHT22;1521;53.584;9.938;2023-12-14T15:27:04;4.20;99.90
3023;DHT22;1521;53.584;9.938;2023-12-14T15:29:30;4.10;99.90
3023;DHT22;1521;53.584;9.938;2023-12-14T15:31:55;4.10;99.90
3023;DHT22;1521;53.584;9.938;2023-12-14T15:34:21;4.00;99.90
3023;DHT22;1521;53.584;9.938;2023-12-14T15:36:46;4.00;99.90
3023;DHT22;1521;53.584;9.938;2023-12-14T15:39:12;4.00;99.90
3023;DHT22;1521;53.584;9.938;2023-12-14T15:41:37;4.00;99.90
3023;DHT22;1521;53.584;9.938;2023-12-14T15:44:03;4.00;99.90
3023;DHT22;1521;53.584;9.938;2023-12-14T15:46:29;3.90;99.90
3023;DHT22;1521;53.584;9.938;2023-12-14T15:48:54;3.90;99.90
3023;DHT22;1521;53.584;9.938;2023-12-14T15:51:20;3.80;99.90
3023;DHT22;1521;53.584;9.938;2023-12-14T15:53:45;3.80;99.90
3023;DHT22;1521;53.584;9.938;2023-12-14T15:56:11;3.90;1.00
3023;DHT22;1521;53.584;9.938;2023-12-14T15:58:37;3.80;99.90
3023;DHT22;1521;53.584;9.938;2023-12-14T16:01:03;3.80;99.90
3023;DHT22;1521;53.584;9.938;2023-12-14T16:03:29;3.80;99.90
3023;DHT22;1521;53.584;9.938;2023-12-14T16:05:54;3.70;99.90
3023;DHT22;1521;53.584;9.938;2023-12-14T16:08:20;3.70;99.90
3023;DHT22;1521;53.584;9.938;2023-12-14T16:10:45;3.60;99.90
3023;DHT22;1521;53.584;9.938;2023-12-14T16:13:13;3.60;99.90
3023;DHT22;1521;53.584;9.938;2023-12-14T16:15:39;3.50;1.00
3023;DHT22;1521;53.584;9.938;2023-12-14T16:18:04;3.40;1.00
3023;DHT22;1521;53.584;9.938;2023-12-14T16:20:30;3.40;1.00
3023;DHT22;1521;53.584;9.938;2023-12-14T16:22:56;3.30;1.00